Airfield :
LOGIN :

Register | Disclaimer

   EN    FR    IT 

 










Legend :    VFR   Marginal VFR   IFR   Intensive IFR   Very Intensive IFR
Visi :
Ceiling :
>= 8 km
>= 3000ft
5 to 8 km
1000 to 3000 ft
1500m to 5 km
500 to 1000 ft
800 to 1500m
200 to 500 ft
< 800m
< 200 ft
Symbols :   Thunderstorms  Fog  Heavy snow  Heavy precipitations  Wind > 20 kt
SIGMETs :     Misc.  Thunderstorms  Icing  Turbulence  Mountain Waves  Volcanic Ashes






- Airport Elevation : 468 ft
- IATA code : BQT


UMBB - Brest

CURRENT METAR :
  • 240600Z 30008G13MPS 6000 OVC015CB 01/01 Q1004 R29/290050 NOSIG

EXPIRED METARs :
  • 240530Z 30007G10MPS 4800 -SHSNRA BR OVC016CB 01/01 Q1003 NOSIG RMK QBB190
  • 240500Z 30006G09MPS 3100 -SHSNRA BR OVC016CB 01/01 Q1002 NOSIG RMK QBB180
  • 240400Z 26006G09MPS 3200 -SHSNRA BR OVC016CB 01/01 Q1001 NOSIG RMK QBB180

TAF TAF UMBB
Valid from the 24 at 06:00 until the 24 at 15:00 UTC


240500Z 2406/2415 30007G12MPS 4000 BR BKN006 BKN015CB
TEMPO 2406/2412 32009G14MPS 1100 SHRASN BR BKN003
TEMPO 2412/2415 33010G15MPS 2100 -SHRA BR BKN007



MET'MAP, your aeronautical weather chart ! - Copyright ORBIFLY December 2007 - Disclaimer

ORBIFLY MET'MAP TEAM :

Programming & Development : Alexandra Zaïnal
Concept & original design : Baudouin d'Aumeries
Assistance for programming : Marc-Olivier Méhu
Technical & hardware support : Manuel Goepfert

Contact : metmap@orbifly.com




SOURCES & CREDITS :

   NOAA